Time;durP1;ratioP1;P1;durP2;ratioP2;P2;SDS_P1;SDS_P2;PMS_P1;PMS_P2;Temp;Humidity;BMP_temperature;BMP_pressure;BME280_temperature;BME280_humidity;BME280_pressure;Samples;Min_cycle;Max_cycle;Signal;HPM_P1;HPM_P2
2023/07/10 00:00:54;;;;;;;4.70;4.20;;;26.50;51.70;;;;;;4995803;28;20820;-68
2023/07/10 00:03:20;;;;;;;4.40;4.00;;;26.50;51.20;;;;;;4996014;28;20419;-68
2023/07/10 00:05:45;;;;;;;3.90;3.50;;;26.50;51.20;;;;;;4995746;28;20196;-68
2023/07/10 00:08:11;;;;;;;4.30;3.90;;;26.50;51.20;;;;;;4995545;28;20713;-68
2023/07/10 00:10:37;;;;;;;5.07;3.83;;;26.50;51.20;;;;;;4995552;28;20254;-66
2023/07/10 00:13:03;;;;;;;4.50;4.10;;;26.50;51.20;;;;;;4995579;28;20173;-68
2023/07/10 00:15:29;;;;;;;4.87;3.97;;;26.50;51.10;;;;;;4994249;28;20188;-68
2023/07/10 00:17:54;;;;;;;3.90;3.60;;;26.50;51.10;;;;;;4995364;28;20439;-68
2023/07/10 00:20:27;;;;;;;4.40;4.00;;;26.50;51.10;;;;;;4995678;28;20173;-68
2023/07/10 00:22:52;;;;;;;6.30;4.17;;;26.60;51.20;;;;;;4994006;28;20631;-68
2023/07/10 00:25:18;;;;;;;5.17;4.40;;;26.50;51.10;;;;;;4995412;28;20416;-68
2023/07/10 00:27:46;;;;;;;5.00;4.40;;;26.60;51.20;;;;;;4993967;28;20212;-68
2023/07/10 00:30:23;;;;;;;5.20;4.00;;;26.60;51.20;;;;;;4995247;28;20416;-67
2023/07/10 00:32:52;;;;;;;5.27;4.20;;;26.60;51.30;;;;;;4995199;28;20455;-68
2023/07/10 00:35:23;;;;;;;5.13;4.30;;;26.60;51.20;;;;;;4995238;28;20419;-68
2023/07/10 00:38:03;;;;;;;6.30;4.73;;;26.60;51.20;;;;;;4995090;28;20428;-68
2023/07/10 00:40:34;;;;;;;4.80;4.30;;;26.50;51.20;;;;;;4995124;28;20395;-68
2023/07/10 00:43:11;;;;;;;5.03;4.47;;;26.60;51.20;;;;;;4993755;28;20774;-68
2023/07/10 00:45:37;;;;;;;4.37;3.97;;;26.60;51.20;;;;;;4995103;28;20904;-67
2023/07/10 00:48:34;;;;;;;4.60;4.20;;;26.50;51.20;;;;;;4993784;28;20443;-68
2023/07/10 00:51:06;;;;;;;5.03;4.53;;;26.60;51.20;;;;;;4993559;28;20201;-68
2023/07/10 00:53:38;;;;;;;5.10;4.60;;;26.60;51.20;;;;;;4995393;28;20397;-69
2023/07/10 00:56:07;;;;;;;4.50;3.83;;;26.60;51.30;;;;;;4995091;28;20396;-68
2023/07/10 00:58:42;;;;;;;6.23;5.10;;;26.60;51.30;;;;;;4994906;28;21035;-68
2023/07/10 01:01:13;;;;;;;5.43;4.67;;;26.60;51.30;;;;;;4994728;28;20474;-68
2023/07/10 01:03:40;;;;;;;7.67;4.77;;;26.60;51.20;;;;;;4994948;28;20396;-68
2023/07/10 01:06:11;;;;;;;4.77;4.33;;;26.60;51.30;;;;;;4994173;28;20420;-68
2023/07/10 01:08:41;;;;;;;4.33;3.90;;;26.60;51.20;;;;;;4994676;28;20794;-68
2023/07/10 01:11:07;;;;;;;5.73;4.50;;;26.60;51.30;;;;;;4994435;28;20546;-67
2023/07/10 01:13:34;;;;;;;5.20;4.33;;;26.60;51.20;;;;;;4994705;28;20413;-68
2023/07/10 01:16:00;;;;;;;6.70;4.97;;;26.60;51.30;;;;;;4994385;28;20417;-68
2023/07/10 01:18:26;;;;;;;4.80;4.40;;;26.60;51.20;;;;;;4994572;28;20424;-68
2023/07/10 01:21:31;;;;;;;6.30;5.03;;;26.60;51.20;;;;;;4993022;28;20850;-68
2023/07/10 01:23:59;;;;;;;4.57;4.17;;;26.60;51.20;;;;;;4994217;28;20411;-68
2023/07/10 01:26:25;;;;;;;5.00;4.43;;;26.60;51.30;;;;;;4994212;28;20500;-68
2023/07/10 01:28:53;;;;;;;5.00;4.50;;;26.60;51.30;;;;;;4994157;28;20491;-67
2023/07/10 01:31:20;;;;;;;6.80;5.03;;;26.60;51.20;;;;;;4994072;28;20835;-68
2023/07/10 01:33:56;;;;;;;5.60;5.10;;;26.60;51.20;;;;;;4994080;28;20423;-68
2023/07/10 01:36:26;;;;;;;4.80;4.40;;;26.60;51.20;;;;;;4994047;28;20821;-68
2023/07/10 01:39:01;;;;;;;6.37;5.23;;;26.60;51.20;;;;;;4992683;28;20491;-68
2023/07/10 01:41:36;;;;;;;6.77;5.50;;;26.60;51.20;;;;;;4994003;28;20761;-68
2023/07/10 01:44:12;;;;;;;5.67;4.60;;;26.60;51.20;;;;;;4993910;28;20404;-68
2023/07/10 01:46:38;;;;;;;6.97;5.07;;;26.60;51.20;;;;;;4993759;28;20400;-68
2023/07/10 01:49:04;;;;;;;5.80;5.00;;;26.60;51.30;;;;;;4993743;28;20413;-68
2023/07/10 01:51:30;;;;;;;5.97;5.37;;;26.60;51.20;;;;;;4993642;28;20207;-68
2023/07/10 01:54:02;;;;;;;5.90;4.60;;;26.60;51.30;;;;;;4993629;28;20412;-68
2023/07/10 01:56:28;;;;;;;5.80;5.30;;;26.60;51.20;;;;;;4993557;28;20408;-68
2023/07/10 01:58:53;;;;;;;8.43;5.77;;;26.60;51.20;;;;;;4993471;28;20400;-68
2023/07/10 02:01:19;;;;;;;6.10;5.40;;;26.60;51.20;;;;;;4993388;28;20193;-68
2023/07/10 02:03:45;;;;;;;6.53;5.47;;;26.60;51.30;;;;;;4993500;28;20250;-68
2023/07/10 02:06:10;;;;;;;5.03;4.40;;;26.60;51.20;;;;;;4993463;28;20177;-68
2023/07/10 02:08:36;;;;;;;6.03;5.40;;;26.60;51.20;;;;;;4993356;28;20693;-68
2023/07/10 02:11:01;;;;;;;7.00;4.90;;;26.60;51.20;;;;;;4993255;28;20200;-68
2023/07/10 02:13:27;;;;;;;5.60;5.10;;;26.60;51.30;;;;;;4991809;28;20601;-67
2023/07/10 02:15:54;;;;;;;7.20;5.90;;;26.60;51.20;;;;;;4992042;28;20174;-68
2023/07/10 02:18:20;;;;;;;6.03;5.43;;;26.60;51.30;;;;;;4992635;28;20295;-68
2023/07/10 02:20:45;;;;;;;7.50;5.00;;;26.60;51.30;;;;;;4993221;28;20968;-68
2023/07/10 02:23:11;;;;;;;6.93;6.27;;;26.60;51.20;;;;;;4993422;28;20216;-68
2023/07/10 02:25:37;;;;;;;5.93;5.40;;;26.60;51.30;;;;;;4993201;28;20173;-68
2023/07/10 02:28:02;;;;;;;6.43;4.83;;;26.60;51.30;;;;;;4993006;28;20291;-68
2023/07/10 02:30:28;;;;;;;6.23;5.53;;;26.60;51.30;;;;;;4992102;28;20181;-68
2023/07/10 02:32:53;;;;;;;5.27;4.77;;;26.60;51.30;;;;;;4992596;28;20619;-68
2023/07/10 02:35:19;;;;;;;7.23;5.20;;;26.60;51.30;;;;;;4992970;28;20169;-68
2023/07/10 02:37:45;;;;;;;7.37;6.30;;;26.60;51.30;;;;;;4992902;28;20235;-68
2023/07/10 02:40:10;;;;;;;6.37;5.40;;;26.60;51.30;;;;;;4992871;28;20227;-69
2023/07/10 02:42:36;;;;;;;6.30;5.70;;;26.60;51.30;;;;;;4992856;28;20184;-68
2023/07/10 02:45:02;;;;;;;6.67;5.60;;;26.60;51.30;;;;;;4992844;28;20526;-68
2023/07/10 02:47:27;;;;;;;6.10;5.10;;;26.60;51.30;;;;;;4992751;28;20203;-68
2023/07/10 02:49:53;;;;;;;7.00;5.83;;;26.60;51.30;;;;;;4991486;28;20447;-68
2023/07/10 02:52:18;;;;;;;9.80;6.10;;;26.60;51.30;;;;;;4992695;28;20193;-68
2023/07/10 02:54:44;;;;;;;7.20;5.60;;;26.60;51.30;;;;;;4992688;28;20629;-68
2023/07/10 02:57:10;;;;;;;6.40;5.53;;;26.60;51.30;;;;;;4992657;28;20196;-68
2023/07/10 02:59:35;;;;;;;6.70;5.93;;;26.60;51.40;;;;;;4992617;28;20173;-68
2023/07/10 03:02:01;;;;;;;6.10;5.50;;;26.60;51.40;;;;;;4992560;28;20560;-68
2023/07/10 03:04:27;;;;;;;7.63;6.00;;;26.60;51.40;;;;;;4992918;28;20232;-68
2023/07/10 03:06:52;;;;;;;6.13;5.50;;;26.60;51.40;;;;;;4992523;28;20276;-68
2023/07/10 03:09:18;;;;;;;6.73;6.03;;;26.60;51.40;;;;;;4992607;28;20185;-68
2023/07/10 03:11:43;;;;;;;6.23;5.63;;;26.60;51.40;;;;;;4992448;28;20196;-68
2023/07/10 03:14:09;;;;;;;6.27;5.50;;;26.60;51.40;;;;;;4992811;28;20200;-68
2023/07/10 03:16:35;;;;;;;7.10;5.83;;;26.60;51.40;;;;;;4992425;28;20638;-68
2023/07/10 03:19:00;;;;;;;6.00;5.50;;;26.60;51.40;;;;;;4992493;28;20561;-69
2023/07/10 03:21:26;;;;;;;5.80;5.27;;;26.60;51.40;;;;;;4992391;28;20661;-68
2023/07/10 03:23:52;;;;;;;6.43;5.83;;;26.60;51.40;;;;;;4992469;28;20177;-69
2023/07/10 03:26:17;;;;;;;5.93;5.40;;;26.60;51.40;;;;;;4992364;28;20709;-68
2023/07/10 03:28:43;;;;;;;6.67;6.00;;;26.60;51.40;;;;;;4993737;28;20212;-68
2023/07/10 03:31:09;;;;;;;8.13;6.03;;;26.60;51.40;;;;;;4996280;28;20650;-68
2023/07/10 03:33:35;;;;;;;6.67;5.97;;;26.60;51.40;;;;;;4996313;28;20215;-68
2023/07/10 03:36:05;;;;;;;6.27;5.67;;;26.60;51.40;;;;;;4996310;28;20207;-67
2023/07/10 03:38:32;;;;;;;6.30;5.67;;;26.60;51.50;;;;;;4996196;28;20197;-67
2023/07/10 03:40:58;;;;;;;5.53;5.03;;;26.60;51.50;;;;;;4996158;28;20910;-68
2023/07/10 03:43:27;;;;;;;6.00;5.40;;;26.60;51.50;;;;;;4996125;28;20854;-68
2023/07/10 03:45:54;;;;;;;7.07;6.10;;;26.60;51.50;;;;;;4996120;28;20403;-67
2023/07/10 03:48:20;;;;;;;6.23;5.63;;;26.60;51.50;;;;;;4995939;28;20436;-68
2023/07/10 03:50:45;;;;;;;6.13;5.47;;;26.60;51.50;;;;;;4996235;28;20511;-68
2023/07/10 03:53:11;;;;;;;7.30;6.57;;;26.60;51.40;;;;;;4995905;28;20988;-69
2023/07/10 03:55:37;;;;;;;7.93;5.70;;;26.60;51.40;;;;;;4995952;28;20177;-68
2023/07/10 03:58:19;;;;;;;6.70;5.77;;;26.60;51.40;;;;;;4995737;28;20197;-68
2023/07/10 04:00:45;;;;;;;7.23;6.00;;;26.60;51.40;;;;;;4995855;28;20681;-68
2023/07/10 04:03:10;;;;;;;7.43;6.37;;;26.60;51.50;;;;;;4995797;28;20408;-68
2023/07/10 04:05:36;;;;;;;6.77;6.17;;;26.60;51.50;;;;;;4995989;28;20657;-68
2023/07/10 04:08:01;;;;;;;7.03;6.33;;;26.60;51.40;;;;;;4995608;28;20190;-68
2023/07/10 04:10:27;;;;;;;9.50;7.13;;;26.60;51.50;;;;;;4995649;28;20326;-68
2023/07/10 04:12:52;;;;;;;7.53;6.07;;;26.60;51.50;;;;;;4995448;28;20536;-69
2023/07/10 04:15:18;;;;;;;6.73;5.60;;;26.60;51.40;;;;;;4995269;28;20173;-68
2023/07/10 04:17:43;;;;;;;8.27;6.23;;;26.60;51.50;;;;;;4995397;28;20204;-68
2023/07/10 04:20:09;;;;;;;6.00;5.40;;;26.60;51.40;;;;;;4995418;28;20181;-68
2023/07/10 04:22:35;;;;;;;11.23;6.20;;;26.60;51.40;;;;;;4995410;28;20184;-68
2023/07/10 04:25:05;;;;;;;7.37;6.67;;;26.60;51.40;;;;;;4995642;28;20630;-68
2023/07/10 04:27:32;;;;;;;8.10;6.70;;;26.60;51.40;;;;;;4995342;28;20189;-68
2023/07/10 04:29:58;;;;;;;7.03;6.43;;;26.60;51.40;;;;;;4995315;28;20408;-68
2023/07/10 04:32:24;;;;;;;7.10;5.70;;;26.60;51.40;;;;;;4993997;28;20463;-68
2023/07/10 04:34:50;;;;;;;6.47;5.90;;;26.60;51.40;;;;;;4994847;28;20408;-68
2023/07/10 04:37:16;;;;;;;7.03;6.00;;;26.60;51.40;;;;;;4995160;28;20197;-67
2023/07/10 04:39:41;;;;;;;7.03;6.33;;;26.60;51.40;;;;;;4994664;28;20174;-68
2023/07/10 04:42:07;;;;;;;6.87;6.27;;;26.60;51.40;;;;;;4994891;28;20180;-67
2023/07/10 04:44:33;;;;;;;6.87;6.17;;;26.60;51.40;;;;;;4994997;28;20173;-68
2023/07/10 04:46:59;;;;;;;7.23;6.47;;;26.60;51.40;;;;;;4995167;28;20666;-68
2023/07/10 04:49:24;;;;;;;6.43;5.83;;;26.60;51.40;;;;;;4995190;28;20196;-67
2023/07/10 04:51:51;;;;;;;7.50;6.43;;;26.60;51.40;;;;;;4994776;28;20896;-68
2023/07/10 04:54:16;;;;;;;6.53;5.93;;;26.60;51.40;;;;;;4994874;28;20186;-67
2023/07/10 04:56:42;;;;;;;6.53;6.03;;;26.70;51.50;;;;;;4994776;28;20415;-68
2023/07/10 04:59:08;;;;;;;7.00;6.30;;;26.70;51.50;;;;;;4995003;28;20180;-68
2023/07/10 05:01:33;;;;;;;6.23;5.63;;;26.70;51.50;;;;;;4994647;28;20605;-68
2023/07/10 05:03:59;;;;;;;7.10;6.40;;;26.60;51.50;;;;;;4994599;28;20411;-68
2023/07/10 05:06:25;;;;;;;6.63;5.93;;;26.70;51.50;;;;;;4993367;28;20181;-67
2023/07/10 05:08:55;;;;;;;7.20;6.40;;;26.70;51.50;;;;;;4994352;28;20413;-68
2023/07/10 05:11:23;;;;;;;5.63;5.17;;;26.70;51.50;;;;;;4993123;28;20444;-67
2023/07/10 05:13:48;;;;;;;6.57;5.97;;;26.70;51.50;;;;;;4992555;28;20801;-68
2023/07/10 05:16:14;;;;;;;7.43;6.27;;;26.70;51.50;;;;;;4994325;28;20408;-68
2023/07/10 05:18:40;;;;;;;6.77;5.93;;;26.70;51.50;;;;;;4994319;28;20193;-68
2023/07/10 05:21:06;;;;;;;7.13;6.00;;;26.70;51.60;;;;;;4994276;28;20409;-68
2023/07/10 05:23:32;;;;;;;6.27;5.73;;;26.70;51.50;;;;;;4994267;28;20180;-67
2023/07/10 05:26:09;;;;;;;6.37;5.77;;;26.70;51.50;;;;;;4994184;28;20184;-67
2023/07/10 05:28:36;;;;;;;6.80;6.20;;;26.70;51.50;;;;;;4991985;28;20195;-68
2023/07/10 05:31:04;;;;;;;6.70;6.10;;;26.70;51.50;;;;;;4994307;28;20820;-67
2023/07/10 05:33:30;;;;;;;5.30;4.80;;;26.70;51.50;;;;;;4994058;28;20409;-68
2023/07/10 05:35:58;;;;;;;7.00;6.30;;;26.70;51.50;;;;;;4994241;28;20760;-67
2023/07/10 05:38:27;;;;;;;6.07;5.53;;;26.70;51.60;;;;;;4994092;28;20482;-67
2023/07/10 05:40:53;;;;;;;5.70;5.20;;;26.70;51.50;;;;;;4993921;28;20458;-65
2023/07/10 05:43:20;;;;;;;7.23;6.53;;;26.70;51.50;;;;;;4994127;28;20404;-65
2023/07/10 05:45:47;;;;;;;7.97;5.90;;;26.70;51.50;;;;;;4993754;28;20408;-67
2023/07/10 05:48:12;;;;;;;7.60;5.60;;;26.70;51.50;;;;;;4993755;28;20439;-66
2023/07/10 05:50:38;;;;;;;6.80;6.20;;;26.70;51.50;;;;;;4993619;28;20396;-66
2023/07/10 05:53:04;;;;;;;8.90;6.90;;;26.70;51.50;;;;;;4993487;28;20593;-66
2023/07/10 05:55:30;;;;;;;7.60;6.90;;;26.70;51.50;;;;;;4993562;28;20173;-65
2023/07/10 05:57:56;;;;;;;7.90;6.70;;;26.70;51.50;;;;;;4993402;28;20435;-66
2023/07/10 06:00:22;;;;;;;8.77;6.40;;;26.70;51.50;;;;;;4993478;28;20189;-66
2023/07/10 06:02:47;;;;;;;7.50;6.70;;;26.70;51.50;;;;;;4993483;28;20211;-66
2023/07/10 06:05:13;;;;;;;7.00;6.27;;;26.70;51.50;;;;;;4993441;28;20562;-65
2023/07/10 06:07:38;;;;;;;7.30;5.70;;;26.70;51.50;;;;;;4993416;28;20201;-66
2023/07/10 06:10:05;;;;;;;6.80;6.20;;;26.70;51.50;;;;;;4993390;28;20180;-66
2023/07/10 06:12:30;;;;;;;7.07;6.37;;;26.70;51.50;;;;;;4993337;28;20196;-66
2023/07/10 06:14:56;;;;;;;6.83;6.10;;;26.70;51.60;;;;;;4992103;28;20416;-68
2023/07/10 06:17:21;;;;;;;6.93;6.10;;;26.70;51.50;;;;;;4993229;28;20260;-65
2023/07/10 06:19:47;;;;;;;7.10;5.53;;;26.70;51.50;;;;;;4993194;28;20177;-66
2023/07/10 06:22:14;;;;;;;6.37;5.77;;;26.70;51.60;;;;;;4993179;28;20575;-66
2023/07/10 06:24:40;;;;;;;6.33;5.70;;;26.70;51.60;;;;;;4993175;28;20176;-66
2023/07/10 06:27:06;;;;;;;6.40;5.80;;;26.70;51.60;;;;;;4990780;28;20432;-66
2023/07/10 06:29:35;;;;;;;6.50;5.90;;;26.70;51.60;;;;;;4993330;28;20913;-66
2023/07/10 06:32:01;;;;;;;6.27;5.77;;;26.70;51.60;;;;;;4993033;28;20455;-67
2023/07/10 06:34:28;;;;;;;10.17;7.30;;;26.70;52.20;;;;;;4993175;28;20419;-67
2023/07/10 06:36:54;;;;;;;7.40;6.70;;;26.70;51.60;;;;;;4992873;28;20189;-65
2023/07/10 06:39:19;;;;;;;8.63;6.83;;;26.70;51.60;;;;;;4991624;28;20435;-66
2023/07/10 06:41:45;;;;;;;7.83;6.13;;;26.70;51.60;;;;;;4992873;28;20181;-66
2023/07/10 06:44:11;;;;;;;6.00;5.40;;;26.70;51.60;;;;;;4992697;28;20177;-66
2023/07/10 06:46:36;;;;;;;6.90;6.30;;;26.70;51.60;;;;;;4992769;28;20630;-66
2023/07/10 06:49:02;;;;;;;7.60;6.80;;;26.70;51.60;;;;;;4992723;28;20187;-66
2023/07/10 06:51:27;;;;;;;7.10;5.77;;;26.70;51.60;;;;;;4992911;28;20208;-66
2023/07/10 06:53:53;;;;;;;7.07;6.37;;;26.70;51.60;;;;;;4992691;28;20181;-69
2023/07/10 06:56:19;;;;;;;6.73;6.07;;;26.70;51.70;;;;;;4992643;28;20184;-66
2023/07/10 06:58:44;;;;;;;7.10;6.40;;;26.80;51.70;;;;;;4992588;28;20206;-66
2023/07/10 07:01:10;;;;;;;7.50;6.80;;;26.70;51.70;;;;;;4992518;28;20196;-66
2023/07/10 07:03:35;;;;;;;6.70;6.10;;;26.70;51.70;;;;;;4990776;28;20609;-68
2023/07/10 07:06:05;;;;;;;6.57;5.83;;;26.70;51.70;;;;;;4992873;28;20196;-69
2023/07/10 07:08:31;;;;;;;6.57;5.60;;;26.70;51.70;;;;;;4992552;28;20201;-66
2023/07/10 07:10:57;;;;;;;6.40;5.83;;;26.80;51.70;;;;;;4992511;28;20806;-67
2023/07/10 07:13:23;;;;;;;7.30;5.67;;;26.80;51.70;;;;;;4992692;28;20181;-66
2023/07/10 07:15:53;;;;;;;6.43;5.83;;;26.80;51.70;;;;;;4992618;28;20169;-67
2023/07/10 07:18:19;;;;;;;6.13;5.53;;;26.70;51.70;;;;;;4992645;28;20189;-67
2023/07/10 07:20:46;;;;;;;6.03;5.50;;;26.80;51.70;;;;;;4992788;28;20424;-68
2023/07/10 07:23:11;;;;;;;6.30;5.80;;;26.80;51.70;;;;;;4992578;28;20834;-68
2023/07/10 07:25:40;;;;;;;7.03;6.33;;;26.80;51.70;;;;;;4991290;28;20415;-66
2023/07/10 07:28:06;;;;;;;6.20;5.70;;;26.80;51.80;;;;;;4992733;28;20196;-68
2023/07/10 07:30:32;;;;;;;5.67;5.17;;;26.80;51.80;;;;;;4992628;28;20863;-67
2023/07/10 07:32:58;;;;;;;7.43;6.40;;;26.80;51.80;;;;;;4992758;28;20285;-68
2023/07/10 07:35:23;;;;;;;5.90;5.33;;;26.80;51.80;;;;;;4992762;28;20502;-67
2023/07/10 07:37:49;;;;;;;6.23;5.10;;;26.80;51.80;;;;;;4992664;28;20197;-66
2023/07/10 07:40:16;;;;;;;5.90;5.40;;;26.80;51.80;;;;;;4992658;28;20175;-67
2023/07/10 07:42:43;;;;;;;5.53;5.03;;;26.80;51.80;;;;;;4992581;28;20268;-66
2023/07/10 07:45:10;;;;;;;5.50;5.00;;;26.80;51.80;;;;;;4992396;28;20426;-67
2023/07/10 07:47:35;;;;;;;5.50;5.00;;;26.80;51.80;;;;;;4992368;28;20522;-68
2023/07/10 07:50:01;;;;;;;8.40;5.70;;;26.80;52.40;;;;;;4992535;28;20531;-67
2023/07/10 07:52:26;;;;;;;6.13;5.00;;;26.80;51.80;;;;;;4992432;28;20197;-67
2023/07/10 07:54:52;;;;;;;6.27;5.67;;;26.80;51.80;;;;;;4992437;28;20185;-67
2023/07/10 07:57:18;;;;;;;6.50;5.90;;;26.80;51.80;;;;;;4992520;28;20197;-69
2023/07/10 07:59:43;;;;;;;5.77;5.27;;;26.80;51.80;;;;;;4992455;28;20642;-66
2023/07/10 08:02:09;;;;;;;6.70;6.07;;;26.80;51.90;;;;;;4992413;28;20570;-66
2023/07/10 08:04:35;;;;;;;5.67;5.17;;;26.80;51.80;;;;;;4992417;28;20181;-68
2023/07/10 08:07:01;;;;;;;6.10;5.50;;;26.80;51.80;;;;;;4990999;28;20467;-67
2023/07/10 08:09:26;;;;;;;5.43;4.93;;;26.80;51.80;;;;;;4992546;28;20470;-67
2023/07/10 08:11:52;;;;;;;5.90;5.40;;;26.90;51.90;;;;;;4992366;28;20339;-66
2023/07/10 08:14:18;;;;;;;5.07;4.57;;;26.90;51.90;;;;;;4992276;28;20174;-67
2023/07/10 08:16:43;;;;;;;5.33;4.83;;;26.90;51.90;;;;;;4995044;28;20681;-67
2023/07/10 08:19:09;;;;;;;6.60;5.90;;;26.90;51.90;;;;;;4996085;28;20181;-67
2023/07/10 08:21:34;;;;;;;5.50;5.00;;;26.90;51.90;;;;;;4995596;28;20185;-68
2023/07/10 08:24:00;;;;;;;6.60;6.00;;;26.90;52.00;;;;;;4995889;28;20537;-68
2023/07/10 08:26:25;;;;;;;6.67;6.07;;;26.90;52.00;;;;;;4995610;28;20184;-68
2023/07/10 08:28:51;;;;;;;6.00;5.40;;;26.90;52.00;;;;;;4995469;28;20197;-68
2023/07/10 08:31:17;;;;;;;6.60;5.90;;;26.90;52.00;;;;;;4995462;28;20196;-68
2023/07/10 08:33:43;;;;;;;5.50;4.80;;;26.90;52.00;;;;;;4995542;28;20185;-68
2023/07/10 08:36:09;;;;;;;6.00;5.50;;;26.90;52.00;;;;;;4995496;28;20480;-68
2023/07/10 08:38:36;;;;;;;6.57;6.00;;;26.90;52.00;;;;;;4995567;28;20599;-68
2023/07/10 08:41:17;;;;;;;6.00;5.40;;;26.90;52.00;;;;;;4995265;28;20588;-68
2023/07/10 08:43:43;;;;;;;5.90;5.40;;;26.90;52.00;;;;;;4995313;28;20432;-68
2023/07/10 08:46:21;;;;;;;6.73;5.50;;;26.90;52.00;;;;;;4995247;28;20412;-68
2023/07/10 08:49:11;;;;;;;5.73;5.23;;;26.90;52.00;;;;;;4995143;28;20432;-68
2023/07/10 08:52:00;;;;;;;5.87;5.27;;;26.90;52.10;;;;;;4995111;28;20475;-68
2023/07/10 08:54:26;;;;;;;8.07;6.10;;;26.90;52.00;;;;;;4995038;28;20393;-67
2023/07/10 08:57:10;;;;;;;6.40;5.80;;;26.90;52.10;;;;;;4994965;28;20436;-67
2023/07/10 08:59:43;;;;;;;6.50;5.80;;;26.90;52.10;;;;;;4995255;28;20161;-67
2023/07/10 09:02:23;;;;;;;6.43;5.83;;;26.90;52.20;;;;;;4994909;28;20443;-67
2023/07/10 09:04:50;;;;;;;9.13;5.57;;;26.90;52.20;;;;;;4995025;28;20408;-66
2023/07/10 09:07:18;;;;;;;6.60;5.80;;;26.90;52.20;;;;;;4995165;28;20464;-67
2023/07/10 09:09:49;;;;;;;5.57;5.07;;;26.90;52.30;;;;;;4994853;28;20502;-67
2023/07/10 09:12:39;;;;;;;6.30;5.70;;;26.90;52.30;;;;;;4994611;28;20965;-67
2023/07/10 09:15:08;;;;;;;5.50;5.03;;;26.90;52.20;;;;;;4985179;28;20933;-68
2023/07/10 09:17:54;;;;;;;6.33;5.73;;;26.90;52.30;;;;;;4994742;28;20440;-66
2023/07/10 09:20:24;;;;;;;5.40;4.50;;;26.90;52.30;;;;;;4994893;28;20812;-67
2023/07/10 09:23:01;;;;;;;5.97;5.37;;;26.90;52.30;;;;;;4995012;28;20507;-67
2023/07/10 09:25:27;;;;;;;6.10;5.50;;;26.90;52.40;;;;;;4994220;28;20442;-67
2023/07/10 09:27:54;;;;;;;6.03;5.30;;;26.90;52.40;;;;;;4993768;28;20443;-67
2023/07/10 09:30:41;;;;;;;5.70;5.20;;;26.90;52.40;;;;;;4994368;28;20800;-68
2023/07/10 09:33:11;;;;;;;5.27;4.77;;;26.90;52.40;;;;;;4993115;28;20515;-68
2023/07/10 09:35:41;;;;;;;5.60;5.10;;;26.90;52.50;;;;;;4994199;28;20408;-67
2023/07/10 09:38:11;;;;;;;4.90;4.50;;;26.90;52.50;;;;;;4994068;28;20428;-67
2023/07/10 09:40:43;;;;;;;5.63;5.10;;;27.00;52.60;;;;;;4994277;28;20785;-68
2023/07/10 09:43:12;;;;;;;6.60;5.00;;;26.90;52.50;;;;;;4993938;28;20401;-66
2023/07/10 09:45:44;;;;;;;6.10;5.37;;;27.00;52.60;;;;;;4993812;28;20471;-67
2023/07/10 09:48:32;;;;;;;6.07;5.57;;;27.00;52.60;;;;;;4993822;28;20428;-67
2023/07/10 09:51:03;;;;;;;6.67;5.87;;;27.00;52.60;;;;;;4993084;28;20491;-68
2023/07/10 09:53:31;;;;;;;6.00;5.17;;;27.00;52.60;;;;;;4993855;28;20404;-68
2023/07/10 09:55:58;;;;;;;5.93;5.33;;;27.00;53.30;;;;;;4994231;28;20807;-67
2023/07/10 09:58:23;;;;;;;5.83;5.33;;;27.00;52.70;;;;;;4993662;28;20471;-68
2023/07/10 10:00:49;;;;;;;5.67;5.17;;;27.00;52.70;;;;;;4993540;28;20483;-68
2023/07/10 10:03:19;;;;;;;6.13;5.10;;;27.00;52.70;;;;;;4993584;28;20186;-68
2023/07/10 10:05:52;;;;;;;4.70;4.20;;;27.00;52.70;;;;;;4993394;28;20419;-68
2023/07/10 10:08:28;;;;;;;6.03;5.43;;;27.00;52.70;;;;;;4993719;28;20439;-67
2023/07/10 10:11:08;;;;;;;5.10;4.60;;;27.00;52.70;;;;;;4993226;28;20408;-68
2023/07/10 10:13:41;;;;;;;5.70;5.20;;;27.00;52.70;;;;;;4993601;28;20459;-67
2023/07/10 10:16:31;;;;;;;6.00;5.40;;;27.00;52.70;;;;;;4991978;28;20431;-67
2023/07/10 10:19:18;;;;;;;5.30;4.80;;;27.00;52.80;;;;;;4993255;28;20432;-66
2023/07/10 10:21:43;;;;;;;5.63;5.13;;;27.00;52.80;;;;;;4993165;28;20462;-68
2023/07/10 10:24:11;;;;;;;5.50;4.90;;;27.00;52.80;;;;;;4993084;28;20416;-67
2023/07/10 10:26:59;;;;;;;5.10;4.60;;;27.00;53.40;;;;;;4993045;28;20184;-67
2023/07/10 10:29:54;;;;;;;5.57;4.97;;;27.00;52.80;;;;;;4993042;28;20426;-67
2023/07/10 10:32:41;;;;;;;5.30;4.80;;;27.00;52.80;;;;;;4992997;28;20449;-67
2023/07/10 10:35:28;;;;;;;5.37;4.87;;;27.00;52.90;;;;;;4991657;28;20408;-67
2023/07/10 10:38:01;;;;;;;5.97;5.37;;;27.00;52.90;;;;;;4992414;28;20798;-67
2023/07/10 10:40:57;;;;;;;5.20;4.80;;;27.00;52.90;;;;;;4992927;28;20898;-68
2023/07/10 10:43:36;;;;;;;5.20;4.70;;;27.00;52.90;;;;;;4992838;28;20542;-67
2023/07/10 10:46:17;;;;;;;5.67;5.17;;;27.00;52.80;;;;;;4993134;28;20412;-67
2023/07/10 10:49:10;;;;;;;4.90;4.50;;;27.00;52.80;;;;;;4992698;28;20446;-67
2023/07/10 10:51:46;;;;;;;4.87;4.47;;;27.00;52.80;;;;;;4992726;28;20527;-67
2023/07/10 10:54:39;;;;;;;5.40;4.40;;;27.00;52.80;;;;;;4992785;28;20397;-67
2023/07/10 10:57:19;;;;;;;5.03;4.63;;;27.10;52.90;;;;;;4991333;28;20439;-66
2023/07/10 11:00:01;;;;;;;5.40;4.90;;;27.00;52.90;;;;;;4992843;28;20440;-67
2023/07/10 11:02:54;;;;;;;5.17;4.67;;;27.10;52.90;;;;;;4992634;28;20499;-67
2023/07/10 11:05:36;;;;;;;4.90;4.17;;;27.10;52.90;;;;;;4992677;28;20792;-67
2023/07/10 11:08:08;;;;;;;5.67;4.80;;;27.10;52.90;;;;;;4992477;28;20534;-68
2023/07/10 11:10:38;;;;;;;5.23;4.03;;;27.10;52.90;;;;;;4992904;28;20916;-67
2023/07/10 11:13:05;;;;;;;4.90;4.50;;;27.10;52.90;;;;;;4992489;28;20831;-67
2023/07/10 11:15:33;;;;;;;4.80;4.30;;;27.10;52.90;;;;;;4992553;28;20408;-68
2023/07/10 11:18:00;;;;;;;4.97;4.57;;;27.10;52.90;;;;;;4992713;28;20508;-67
2023/07/10 11:20:26;;;;;;;5.47;4.97;;;27.10;52.90;;;;;;4992529;28;20416;-68
2023/07/10 11:23:01;;;;;;;5.50;4.20;;;27.10;52.80;;;;;;4992453;28;20419;-65
2023/07/10 11:25:35;;;;;;;4.90;4.50;;;27.10;52.90;;;;;;4992451;28;20494;-68
2023/07/10 11:28:16;;;;;;;5.07;4.57;;;27.10;52.80;;;;;;4992669;28;20428;-66
2023/07/10 11:30:42;;;;;;;5.33;4.83;;;27.10;52.90;;;;;;4992760;28;20399;-67
2023/07/10 11:33:20;;;;;;;4.93;4.50;;;27.10;52.90;;;;;;4992313;28;20460;-67
2023/07/10 11:36:13;;;;;;;4.80;4.40;;;27.10;52.90;;;;;;4992386;28;20510;-67
2023/07/10 11:39:09;;;;;;;5.60;3.60;;;27.10;52.90;;;;;;4992274;28;20423;-67
2023/07/10 11:41:36;;;;;;;4.53;4.13;;;27.10;52.90;;;;;;4992358;28;20401;-67
2023/07/10 11:44:14;;;;;;;4.90;4.30;;;27.10;53.00;;;;;;4992291;28;20956;-67
2023/07/10 11:47:01;;;;;;;5.17;4.70;;;27.10;53.00;;;;;;4992409;28;20416;-68
2023/07/10 11:49:48;;;;;;;5.43;4.77;;;27.10;52.90;;;;;;4993341;28;20401;-65
2023/07/10 11:52:14;;;;;;;4.50;4.10;;;27.10;53.00;;;;;;4982118;28;20467;-67
2023/07/10 11:54:48;;;;;;;4.67;4.20;;;27.10;53.00;;;;;;4996002;28;20897;-67
2023/07/10 11:57:26;;;;;;;4.93;4.37;;;27.10;53.00;;;;;;4995875;28;20197;-66
2023/07/10 11:59:57;;;;;;;4.53;4.13;;;27.10;53.00;;;;;;4995766;28;20487;-67
2023/07/10 12:02:44;;;;;;;5.20;4.73;;;27.10;53.00;;;;;;4994620;28;20412;-68
2023/07/10 12:05:17;;;;;;;4.60;4.17;;;27.10;53.00;;;;;;4995804;28;20505;-68
2023/07/10 12:07:52;;;;;;;5.23;4.73;;;27.10;53.00;;;;;;4995736;28;20955;-65
2023/07/10 12:10:18;;;;;;;5.10;4.70;;;27.10;53.00;;;;;;4995700;28;20905;-68
2023/07/10 12:12:43;;;;;;;5.70;4.80;;;27.10;53.00;;;;;;4995838;28;20466;-68
2023/07/10 12:15:11;;;;;;;5.77;4.43;;;27.10;53.00;;;;;;4995580;28;20590;-68
2023/07/10 12:17:38;;;;;;;5.07;4.57;;;27.10;53.00;;;;;;4995839;28;20216;-67
2023/07/10 12:20:17;;;;;;;4.30;3.93;;;27.10;53.00;;;;;;4995513;28;20821;-68
2023/07/10 12:22:42;;;;;;;5.30;4.80;;;27.10;53.00;;;;;;4995553;28;20463;-68
2023/07/10 12:25:14;;;;;;;4.60;4.20;;;27.10;53.00;;;;;;4995492;28;20424;-68
2023/07/10 12:27:41;;;;;;;4.90;4.40;;;27.10;53.00;;;;;;4995327;28;20208;-68
2023/07/10 12:30:26;;;;;;;4.90;4.50;;;27.10;53.00;;;;;;4995539;28;20416;-68
2023/07/10 12:32:54;;;;;;;4.23;3.83;;;27.20;53.10;;;;;;4995253;28;20443;-68
2023/07/10 12:35:30;;;;;;;5.10;4.53;;;27.10;53.00;;;;;;4994025;28;20925;-68
2023/07/10 12:37:59;;;;;;;5.43;4.93;;;27.20;53.10;;;;;;4995409;28;20467;-68
2023/07/10 12:40:26;;;;;;;4.60;4.20;;;27.20;53.00;;;;;;4994077;28;20416;-68
2023/07/10 12:42:52;;;;;;;4.27;3.87;;;27.10;53.00;;;;;;4995080;28;20416;-67
2023/07/10 12:45:20;;;;;;;5.27;4.77;;;27.20;53.00;;;;;;4995111;28;20932;-66
2023/07/10 12:48:08;;;;;;;4.80;4.40;;;27.20;53.00;;;;;;4994946;28;20255;-67
2023/07/10 12:50:40;;;;;;;5.00;4.40;;;27.20;53.00;;;;;;4993806;28;20484;-68
2023/07/10 12:53:09;;;;;;;4.60;4.20;;;27.20;53.00;;;;;;4994859;28;20455;-68
2023/07/10 12:55:35;;;;;;;4.53;4.13;;;27.20;53.00;;;;;;4994856;28;20946;-68
2023/07/10 12:58:02;;;;;;;3.93;3.63;;;27.20;53.00;;;;;;4994732;28;20459;-68
2023/07/10 13:00:49;;;;;;;4.80;4.40;;;27.20;53.00;;;;;;4994507;28;20213;-68